Time;durP1;ratioP1;P1;durP2;ratioP2;P2;SDS_P1;SDS_P2;PMS_P1;PMS_P2;Temp;Humidity;BMP_temperature;BMP_pressure;BME280_temperature;BME280_humidity;BME280_pressure;Samples;Min_cycle;Max_cycle;Signal;HPM_P1;HPM_P2
2022/12/24 00:00:33;;;;;;;242.80;118.53;;;6.20;99.90;;;;;;5073354;28;20022;-82
2022/12/24 00:02:59;;;;;;;230.27;112.00;;;6.20;99.90;;;;;;5073381;28;20099;-79
2022/12/24 00:05:25;;;;;;;219.30;107.70;;;6.20;99.90;;;;;;5074003;28;20031;-78
2022/12/24 00:07:51;;;;;;;209.48;103.75;;;6.20;99.90;;;;;;5073692;28;20025;-78
2022/12/24 00:10:17;;;;;;;224.77;102.88;;;6.30;99.90;;;;;;5077528;28;20027;-78
2022/12/24 00:12:42;;;;;;;208.43;102.55;;;6.30;99.90;;;;;;5077325;28;20024;-79
2022/12/24 00:15:09;;;;;;;253.30;116.85;;;6.30;99.90;;;;;;5076533;28;20478;-79
2022/12/24 00:17:34;;;;;;;285.77;136.15;;;6.30;99.90;;;;;;5077432;28;20025;-78
2022/12/24 00:20:00;;;;;;;297.27;131.55;;;6.30;99.90;;;;;;5077568;28;20054;-79
2022/12/24 00:22:26;;;;;;;375.67;158.07;;;6.40;99.90;;;;;;5077709;28;20024;-78
2022/12/24 00:24:52;;;;;;;466.00;184.52;;;6.40;99.90;;;;;;5077207;28;20028;-78
2022/12/24 00:27:17;;;;;;;466.83;190.63;;;6.40;99.90;;;;;;5076017;28;20089;-79
2022/12/24 00:29:43;;;;;;;427.23;180.73;;;6.30;99.90;;;;;;5076250;28;20103;-77
2022/12/24 00:32:09;;;;;;;430.77;184.13;;;6.30;99.90;;;;;;5077068;28;20020;-77
2022/12/24 00:34:38;;;;;;;401.25;175.73;;;6.40;99.90;;;;;;5076947;28;20337;-78
2022/12/24 00:37:06;;;;;;;382.48;174.95;;;6.30;99.90;;;;;;5075631;28;20054;-80
2022/12/24 00:39:32;;;;;;;432.25;197.05;;;6.40;99.90;;;;;;5089377;28;20012;-78
2022/12/24 00:41:58;;;;;;;402.40;188.10;;;6.30;99.90;;;;;;5090518;28;20012;-79
2022/12/24 00:44:24;;;;;;;467.27;203.98;;;6.40;99.90;;;;;;5078765;28;20024;-80
2022/12/24 00:46:49;;;;;;;459.05;200.35;;;6.40;99.90;;;;;;5095952;28;20455;-79
2022/12/24 00:49:15;;;;;;;325.77;150.30;;;6.40;99.90;;;;;;5097238;28;20024;-80
2022/12/24 00:51:41;;;;;;;308.15;141.38;;;6.40;99.90;;;;;;5091056;28;20037;-81
2022/12/24 00:54:07;;;;;;;303.13;137.60;;;6.40;99.90;;;;;;5090620;28;20021;-80
2022/12/24 00:56:33;;;;;;;303.77;133.73;;;6.50;99.90;;;;;;5075513;28;20021;-81
2022/12/24 00:58:59;;;;;;;296.63;125.85;;;6.50;99.90;;;;;;5076844;28;20016;-80
2022/12/24 01:01:26;;;;;;;291.20;116.15;;;6.50;99.90;;;;;;5076005;28;20016;-80
2022/12/24 01:05:08;;;;;;;205.10;94.47;;;6.60;99.90;;;;;;5076714;28;20016;-81
2022/12/24 01:06:37;;;;;;;186.40;87.80;;;6.60;99.90;;;;;;5076316;28;20025;-81
2022/12/24 01:09:03;;;;;;;289.77;113.28;;;6.60;99.90;;;;;;5076802;28;20024;-80
2022/12/24 01:11:29;;;;;;;166.48;73.20;;;6.60;99.90;;;;;;5076580;28;20079;-80
2022/12/24 01:13:55;;;;;;;157.25;69.65;;;6.60;99.90;;;;;;5084284;28;20042;-82
2022/12/24 01:16:21;;;;;;;197.07;74.18;;;6.60;99.90;;;;;;5079706;28;20462;-79
2022/12/24 01:18:47;;;;;;;253.43;92.28;;;6.70;99.90;;;;;;5079236;28;20063;-78
2022/12/24 01:21:13;;;;;;;168.02;72.18;;;6.70;99.90;;;;;;5087756;28;20048;-78
2022/12/24 01:23:39;;;;;;;134.65;60.90;;;6.70;99.90;;;;;;5075047;28;20402;-79
2022/12/24 01:26:05;;;;;;;123.38;53.53;;;6.80;99.90;;;;;;5076201;28;20024;-78
2022/12/24 01:28:32;;;;;;;117.00;52.63;;;6.80;99.90;;;;;;5075789;28;20367;-78
2022/12/24 01:30:58;;;;;;;112.97;51.05;;;6.80;99.90;;;;;;5075732;28;20039;-79
2022/12/24 01:33:26;;;;;;;126.32;58.00;;;6.80;99.90;;;;;;5075975;28;20452;-80
2022/12/24 01:35:52;;;;;;;125.90;58.55;;;6.80;99.90;;;;;;5074400;28;20020;-77
2022/12/24 01:38:17;;;;;;;131.00;63.15;;;6.90;99.90;;;;;;5074369;28;20086;-78
2022/12/24 01:43:31;;;;;;;180.80;82.45;;;6.90;99.90;;;;;;5069286;28;20027;-80
2022/12/24 01:46:11;;;;;;;183.25;82.78;;;6.90;99.90;;;;;;5075243;28;20372;-79
2022/12/24 01:48:43;;;;;;;178.13;80.60;;;7.00;99.90;;;;;;5067982;28;20028;-80
2022/12/24 01:51:38;;;;;;;167.85;80.72;;;7.00;99.90;;;;;;5068278;28;20414;-79
2022/12/24 01:54:09;;;;;;;183.77;84.65;;;7.00;99.90;;;;;;5074198;28;20039;-79
2022/12/24 01:56:38;;;;;;;228.00;99.57;;;7.00;99.90;;;;;;5074284;28;20028;-78
2022/12/24 01:59:09;;;;;;;287.10;117.32;;;7.00;99.90;;;;;;5073921;28;20086;-79
2022/12/24 02:01:35;;;;;;;312.95;127.70;;;7.10;99.90;;;;;;5075463;28;20024;-80
2022/12/24 02:04:12;;;;;;;293.35;122.13;;;7.10;99.90;;;;;;5075121;28;20360;-78
2022/12/24 02:06:38;;;;;;;282.80;123.32;;;7.10;99.90;;;;;;5075463;28;20035;-78
2022/12/24 02:09:03;;;;;;;276.23;120.85;;;7.10;99.90;;;;;;5074906;28;20099;-78
2022/12/24 02:11:29;;;;;;;267.10;117.50;;;7.20;99.90;;;;;;5074017;28;20093;-79
2022/12/24 02:13:59;;;;;;;242.77;112.05;;;7.20;99.90;;;;;;5073425;28;20020;-79
2022/12/24 02:16:46;;;;;;;239.73;109.80;;;7.10;99.90;;;;;;5074790;28;20029;-78
2022/12/24 02:19:30;;;;;;;236.00;111.32;;;7.20;99.90;;;;;;5074766;28;20049;-79
2022/12/24 02:22:15;;;;;;;218.90;103.03;;;7.20;99.90;;;;;;5068492;28;20027;-80
2022/12/24 02:25:24;;;;;;;193.88;91.78;;;7.20;99.90;;;;;;5073680;28;20020;-78
2022/12/24 02:27:58;;;;;;;188.10;91.13;;;7.20;99.90;;;;;;5044787;28;20032;-78
2022/12/24 02:30:29;;;;;;;201.15;95.15;;;7.20;99.90;;;;;;5073278;28;20447;-79
2022/12/24 02:32:55;;;;;;;178.77;92.57;;;7.20;99.90;;;;;;5072942;28;20071;-78
2022/12/24 02:35:46;;;;;;;225.57;105.60;;;7.20;99.90;;;;;;5075165;28;20027;-78
2022/12/24 02:38:37;;;;;;;240.93;120.53;;;7.20;99.90;;;;;;5081911;28;20036;-78
2022/12/24 02:41:11;;;;;;;264.17;132.00;;;7.20;99.90;;;;;;5069326;28;20032;-79
2022/12/24 02:43:42;;;;;;;270.80;134.40;;;7.20;99.90;;;;;;5073131;28;20032;-78
2022/12/24 02:46:17;;;;;;;258.92;128.38;;;7.20;99.90;;;;;;5074719;28;20021;-79
2022/12/24 02:48:46;;;;;;;254.88;125.90;;;7.10;99.90;;;;;;5073019;28;20029;-79
2022/12/24 02:51:12;;;;;;;213.40;109.90;;;7.10;99.90;;;;;;5074340;28;20046;-80
2022/12/24 02:53:38;;;;;;;183.70;92.53;;;7.00;99.90;;;;;;5073031;28;20432;-79
2022/12/24 02:56:27;;;;;;;168.82;89.18;;;7.00;99.90;;;;;;5072931;28;20107;-79
2022/12/24 02:59:15;;;;;;;182.30;92.75;;;7.00;99.90;;;;;;5072941;28;20115;-78
2022/12/24 03:02:28;;;;;;;198.00;101.30;;;7.00;99.90;;;;;;5066268;28;20047;-79
2022/12/24 03:05:08;;;;;;;281.88;139.15;;;7.00;99.90;;;;;;5040744;28;20048;-79
2022/12/24 03:08:06;;;;;;;282.92;141.07;;;7.00;99.90;;;;;;5068558;28;20033;-79
2022/12/24 03:10:46;;;;;;;230.93;116.15;;;7.00;99.90;;;;;;5070882;28;20094;-79
2022/12/24 03:13:17;;;;;;;258.00;128.07;;;7.00;99.90;;;;;;5072720;28;20025;-78
2022/12/24 03:15:45;;;;;;;244.82;115.80;;;7.00;99.90;;;;;;5072440;28;20024;-78
2022/12/24 03:18:12;;;;;;;180.75;96.47;;;7.10;99.90;;;;;;5073405;28;20053;-79
2022/12/24 03:20:44;;;;;;;179.88;90.43;;;7.00;99.90;;;;;;5073677;28;20051;-78
2022/12/24 03:23:10;;;;;;;157.63;75.57;;;7.00;99.90;;;;;;5072505;28;20069;-78
2022/12/24 03:25:39;;;;;;;141.23;71.55;;;7.10;99.90;;;;;;5073877;28;20049;-80
2022/12/24 03:28:07;;;;;;;129.77;69.25;;;7.00;99.90;;;;;;5072505;28;20029;-79
2022/12/24 03:30:33;;;;;;;135.02;66.93;;;7.00;99.90;;;;;;5066302;28;20013;-79
2022/12/24 03:32:59;;;;;;;144.20;72.50;;;7.00;99.90;;;;;;5073818;28;20032;-78
2022/12/24 03:35:25;;;;;;;139.13;67.72;;;7.00;99.90;;;;;;5073824;28;20051;-79
2022/12/24 03:37:51;;;;;;;145.73;68.88;;;7.10;99.90;;;;;;5073371;28;20031;-79
2022/12/24 03:40:16;;;;;;;138.75;66.95;;;7.10;99.90;;;;;;5073829;28;20074;-79
2022/12/24 03:42:42;;;;;;;139.18;65.43;;;7.10;99.90;;;;;;5073185;28;20021;-79
2022/12/24 03:45:08;;;;;;;149.23;72.72;;;7.10;99.90;;;;;;5073383;28;20031;-78
2022/12/24 03:47:34;;;;;;;158.68;78.03;;;7.10;99.90;;;;;;5073503;28;20474;-80
2022/12/24 03:50:00;;;;;;;147.27;72.38;;;7.10;99.90;;;;;;5073239;28;20090;-78
2022/12/24 03:52:25;;;;;;;143.48;69.75;;;7.10;99.90;;;;;;5072260;28;20020;-78
2022/12/24 03:54:51;;;;;;;119.38;59.85;;;7.10;99.90;;;;;;5072181;28;20100;-79
2022/12/24 03:57:17;;;;;;;119.15;60.83;;;7.00;99.90;;;;;;5072302;28;20426;-78
2022/12/24 03:59:43;;;;;;;138.77;66.60;;;7.00;99.90;;;;;;5073754;28;20028;-79
2022/12/24 04:02:09;;;;;;;128.25;62.97;;;7.10;99.90;;;;;;5073494;28;20029;-79
2022/12/24 04:04:36;;;;;;;97.05;52.58;;;7.00;99.90;;;;;;5073312;28;20039;-79
2022/12/24 04:07:03;;;;;;;100.05;49.58;;;7.00;99.90;;;;;;5073058;28;20032;-78
2022/12/24 04:09:29;;;;;;;102.65;51.63;;;7.00;99.90;;;;;;5071967;28;20490;-78
2022/12/24 04:11:54;;;;;;;83.38;42.33;;;7.00;99.90;;;;;;5072969;28;20020;-79
2022/12/24 04:14:20;;;;;;;75.68;39.40;;;6.90;99.90;;;;;;5072042;28;20028;-77
2022/12/24 04:16:46;;;;;;;83.40;40.22;;;6.90;99.90;;;;;;5073000;28;20084;-79
2022/12/24 04:19:11;;;;;;;76.45;38.08;;;6.90;99.90;;;;;;5072541;28;20047;-79
2022/12/24 04:21:37;;;;;;;89.13;44.55;;;6.90;99.90;;;;;;5073292;28;20028;-77
2022/12/24 04:24:03;;;;;;;82.75;47.33;;;6.90;99.90;;;;;;5073342;28;20050;-79
2022/12/24 04:26:29;;;;;;;69.95;36.13;;;6.90;99.90;;;;;;5071629;28;20020;-79
2022/12/24 04:28:55;;;;;;;69.07;34.95;;;7.00;99.90;;;;;;5072930;28;20027;-78
2022/12/24 04:31:20;;;;;;;77.28;36.33;;;7.00;99.90;;;;;;5071915;28;20028;-79
2022/12/24 04:33:46;;;;;;;78.05;37.38;;;7.00;99.90;;;;;;5072709;28;20020;-79
2022/12/24 04:36:15;;;;;;;88.00;39.67;;;7.10;99.90;;;;;;5066069;28;20028;-78
2022/12/24 04:38:41;;;;;;;102.38;42.50;;;7.20;99.90;;;;;;5071585;28;20363;-78
2022/12/24 04:41:11;;;;;;;140.20;51.63;;;7.20;99.90;;;;;;5073437;28;20436;-78
2022/12/24 04:43:37;;;;;;;107.50;49.78;;;7.30;99.90;;;;;;5072960;28;20114;-79
2022/12/24 04:46:08;;;;;;;84.20;41.17;;;7.30;99.90;;;;;;5071540;28;20116;-78
2022/12/24 04:48:34;;;;;;;78.57;40.08;;;7.30;99.90;;;;;;5072971;28;20044;-79
2022/12/24 04:51:02;;;;;;;74.50;38.28;;;7.30;99.90;;;;;;5070928;28;20068;-78
2022/12/24 04:53:28;;;;;;;66.25;34.08;;;7.40;99.90;;;;;;5071449;28;20056;-79
2022/12/24 04:55:53;;;;;;;74.60;34.90;;;7.40;99.90;;;;;;5075159;28;20407;-78
2022/12/24 04:58:19;;;;;;;80.18;35.72;;;7.40;99.90;;;;;;5074914;28;20111;-79
2022/12/24 05:00:45;;;;;;;106.75;44.10;;;7.40;99.90;;;;;;5075011;28;20021;-79
2022/12/24 05:03:10;;;;;;;110.63;45.95;;;7.40;99.90;;;;;;5075251;28;20085;-79
2022/12/24 05:05:36;;;;;;;110.07;49.38;;;7.40;99.90;;;;;;5075062;28;20056;-78
2022/12/24 05:08:02;;;;;;;108.65;49.78;;;7.40;99.90;;;;;;5075935;28;20028;-78
2022/12/24 05:10:28;;;;;;;102.30;47.28;;;7.50;99.90;;;;;;5076069;28;20029;-79
2022/12/24 05:12:54;;;;;;;102.00;45.67;;;7.50;99.90;;;;;;5075981;28;20025;-78
2022/12/24 05:15:19;;;;;;;102.47;43.00;;;7.50;99.90;;;;;;5075781;28;20371;-78
2022/12/24 05:17:45;;;;;;;88.13;40.85;;;7.60;99.90;;;;;;5074761;28;20035;-78
2022/12/24 05:20:11;;;;;;;85.40;38.00;;;7.60;99.90;;;;;;5075824;28;20059;-80
2022/12/24 05:28:22;;;;;;;118.05;54.17;;;7.70;99.90;;;;;;5054416;28;20379;-79
2022/12/24 05:30:47;;;;;;;169.60;76.50;;;7.80;99.90;;;;;;5074933;28;20448;-79
2022/12/24 05:33:13;;;;;;;172.60;73.20;;;7.80;99.90;;;;;;5076195;28;20099;-81
2022/12/24 05:35:38;;;;;;;135.98;58.88;;;7.80;99.90;;;;;;5075856;28;20025;-79
2022/12/24 05:38:04;;;;;;;130.85;54.47;;;7.90;99.90;;;;;;5076275;28;20056;-80
2022/12/24 05:40:30;;;;;;;97.82;43.67;;;7.90;99.90;;;;;;5084725;28;20027;-79
2022/12/24 05:42:56;;;;;;;75.25;40.00;;;7.90;99.90;;;;;;5079559;28;20371;-80
2022/12/24 05:45:21;;;;;;;88.13;43.28;;;7.90;99.90;;;;;;5074777;28;20444;-79
2022/12/24 05:47:47;;;;;;;73.70;40.08;;;7.90;99.90;;;;;;5075695;28;20071;-79
2022/12/24 05:50:13;;;;;;;53.55;30.23;;;7.90;99.90;;;;;;5087976;28;20455;-80
2022/12/24 05:52:38;;;;;;;49.15;27.13;;;7.90;99.90;;;;;;5096345;28;20075;-79
2022/12/24 05:55:05;;;;;;;59.50;30.13;;;7.90;99.90;;;;;;5094818;28;20119;-80
2022/12/24 05:57:30;;;;;;;54.97;31.30;;;8.00;99.90;;;;;;5090121;28;20020;-79
2022/12/24 05:59:56;;;;;;;47.72;27.42;;;8.00;99.90;;;;;;5081946;28;20019;-81
2022/12/24 06:02:22;;;;;;;55.50;31.80;;;8.00;99.90;;;;;;5080351;28;20028;-80
2022/12/24 06:04:47;;;;;;;45.28;25.85;;;8.00;99.90;;;;;;5075948;28;20038;-81
2022/12/24 06:07:13;;;;;;;40.70;21.77;;;8.00;99.90;;;;;;5094410;28;20111;-80
2022/12/24 06:09:39;;;;;;;39.10;23.17;;;8.00;99.90;;;;;;5095692;28;20035;-80
2022/12/24 06:12:05;;;;;;;44.08;23.95;;;8.00;99.90;;;;;;5094816;28;20425;-80
2022/12/24 06:14:31;;;;;;;43.22;25.15;;;8.00;99.90;;;;;;5095646;28;20455;-81
2022/12/24 06:16:56;;;;;;;54.65;32.45;;;8.00;99.90;;;;;;5094479;28;20069;-80
2022/12/24 06:19:22;;;;;;;58.78;33.47;;;8.00;99.90;;;;;;5073937;28;20051;-81
2022/12/24 06:21:48;;;;;;;154.18;69.88;;;8.00;99.90;;;;;;5073909;28;20412;-81
2022/12/24 06:24:14;;;;;;;426.33;198.32;;;8.00;99.90;;;;;;5073932;28;20115;-80
2022/12/24 06:26:40;;;;;;;463.50;209.65;;;8.00;99.90;;;;;;5075044;28;20031;-81
2022/12/24 06:29:06;;;;;;;378.48;173.38;;;8.00;99.90;;;;;;5074978;28;20017;-81
2022/12/24 06:31:33;;;;;;;256.38;118.90;;;8.00;99.90;;;;;;5074626;28;20479;-80
2022/12/24 06:33:58;;;;;;;96.20;51.28;;;8.00;99.90;;;;;;5075206;28;20027;-81
2022/12/24 06:36:25;;;;;;;113.18;57.30;;;8.00;99.90;;;;;;5074781;28;20020;-81
2022/12/24 06:38:52;;;;;;;122.75;64.55;;;8.00;99.90;;;;;;5074619;28;20063;-80
2022/12/24 06:41:19;;;;;;;126.90;64.35;;;8.00;99.90;;;;;;5075059;28;20016;-81
2022/12/24 06:43:46;;;;;;;115.18;59.08;;;8.00;99.90;;;;;;5073699;28;20340;-80
2022/12/24 06:46:12;;;;;;;146.82;77.97;;;8.00;99.90;;;;;;5073479;28;20040;-80
2022/12/24 06:48:37;;;;;;;177.20;93.47;;;8.00;99.90;;;;;;5074884;28;20056;-80
2022/12/24 06:51:04;;;;;;;127.43;72.18;;;8.00;99.90;;;;;;5074974;28;20048;-80
2022/12/24 06:53:30;;;;;;;141.65;79.70;;;8.00;99.90;;;;;;5073623;28;20039;-79
2022/12/24 06:56:07;;;;;;;144.85;76.18;;;8.00;99.90;;;;;;5093684;28;20048;-81
2022/12/24 06:58:34;;;;;;;136.05;76.45;;;8.00;99.90;;;;;;5095020;28;20024;-81
2022/12/24 07:01:06;;;;;;;139.30;76.70;;;8.00;99.90;;;;;;5093279;28;20069;-81
2022/12/24 07:03:32;;;;;;;135.38;75.68;;;8.00;99.90;;;;;;5093522;28;20027;-80
2022/12/24 07:05:58;;;;;;;158.48;88.45;;;8.00;99.90;;;;;;5094524;28;20113;-81
2022/12/24 07:08:25;;;;;;;206.02;99.38;;;8.00;99.90;;;;;;5094615;28;20438;-80
2022/12/24 07:10:51;;;;;;;197.25;100.30;;;8.00;99.90;;;;;;5094386;28;20057;-81
2022/12/24 07:13:17;;;;;;;184.68;91.15;;;8.00;99.90;;;;;;5093201;28;20377;-81
2022/12/24 07:15:44;;;;;;;170.88;88.72;;;8.10;99.90;;;;;;5084403;28;20020;-80
2022/12/24 07:18:11;;;;;;;234.48;113.03;;;8.10;99.90;;;;;;5088467;28;20046;-80
2022/12/24 07:20:37;;;;;;;228.27;113.25;;;8.10;99.90;;;;;;5088622;28;20028;-79
2022/12/24 07:23:03;;;;;;;204.45;104.38;;;8.10;99.90;;;;;;5073964;28;20414;-79
2022/12/24 07:25:29;;;;;;;191.95;95.53;;;8.10;99.90;;;;;;5072970;28;20466;-81
2022/12/24 07:27:55;;;;;;;259.92;123.50;;;8.10;99.90;;;;;;5072622;28;20031;-82
2022/12/24 07:30:20;;;;;;;279.55;136.18;;;8.10;99.90;;;;;;5073872;28;20024;-81
2022/12/24 07:32:46;;;;;;;235.68;117.50;;;8.10;99.90;;;;;;5076724;28;20510;-80
2022/12/24 07:35:12;;;;;;;213.82;113.18;;;8.10;99.90;;;;;;5093876;28;20037;-81
2022/12/24 07:37:37;;;;;;;212.57;105.88;;;8.10;99.90;;;;;;5094435;28;20024;-80
2022/12/24 07:40:08;;;;;;;219.57;112.45;;;8.20;99.90;;;;;;5093865;28;20063;-80
2022/12/24 07:42:34;;;;;;;284.75;156.75;;;8.10;99.90;;;;;;5093861;28;20421;-80
2022/12/24 07:45:00;;;;;;;246.85;134.57;;;8.10;99.90;;;;;;5076305;28;20025;-82
2022/12/24 07:47:25;;;;;;;197.18;114.40;;;8.10;99.90;;;;;;5073907;28;20035;-81
2022/12/24 07:49:51;;;;;;;191.85;108.30;;;8.20;99.90;;;;;;5093120;28;20374;-81
2022/12/24 07:52:16;;;;;;;186.23;107.43;;;8.20;99.90;;;;;;5094029;28;20099;-81
2022/12/24 07:54:42;;;;;;;179.40;100.57;;;8.20;99.90;;;;;;5092546;28;20081;-81
2022/12/24 07:57:08;;;;;;;201.52;115.40;;;8.30;99.90;;;;;;5094048;28;20024;-81
2022/12/24 07:59:34;;;;;;;267.23;152.63;;;8.30;99.90;;;;;;5092623;28;20026;-80
2022/12/24 08:01:59;;;;;;;286.42;162.13;;;8.40;99.90;;;;;;5093488;28;20056;-82
2022/12/24 08:04:25;;;;;;;754.33;377.80;;;8.40;99.90;;;;;;5092690;28;20034;-81
2022/12/24 08:06:51;;;;;;;753.63;383.05;;;8.40;99.90;;;;;;5094046;28;20067;-80
2022/12/24 08:09:16;;;;;;;339.15;192.57;;;8.50;99.90;;;;;;5092379;28;20405;-80
2022/12/24 08:11:42;;;;;;;366.73;205.95;;;8.60;99.90;;;;;;5093736;28;20020;-81
2022/12/24 08:14:08;;;;;;;492.95;283.70;;;8.60;99.90;;;;;;5092450;28;20077;-81
2022/12/24 08:16:33;;;;;;;495.30;291.65;;;8.70;99.90;;;;;;5092303;28;20061;-80
2022/12/24 08:18:59;;;;;;;457.35;276.13;;;8.80;99.90;;;;;;5092407;28;20089;-81
2022/12/24 08:21:25;;;;;;;470.15;272.88;;;8.80;99.90;;;;;;5082518;28;20098;-81
2022/12/24 08:23:50;;;;;;;505.88;287.45;;;8.80;99.90;;;;;;5073313;28;20028;-82
2022/12/24 08:26:16;;;;;;;488.17;276.23;;;8.80;99.90;;;;;;5073641;28;20104;-80
2022/12/24 08:28:43;;;;;;;483.65;273.80;;;8.90;99.90;;;;;;5072852;28;20024;-82
2022/12/24 08:31:08;;;;;;;445.55;259.58;;;8.90;99.90;;;;;;5075404;28;20032;-81
2022/12/24 08:33:34;;;;;;;476.73;269.63;;;9.00;99.90;;;;;;5076498;28;20024;-80
2022/12/24 08:36:01;;;;;;;462.17;269.98;;;9.10;99.90;;;;;;5075643;28;20020;-80
2022/12/24 08:38:27;;;;;;;465.90;277.15;;;9.10;99.90;;;;;;5077067;28;20024;-81
2022/12/24 08:40:54;;;;;;;494.13;286.17;;;9.10;99.90;;;;;;5077915;28;20099;-81
2022/12/24 08:43:19;;;;;;;463.55;277.75;;;9.20;99.90;;;;;;5077242;28;20099;-81
2022/12/24 08:45:46;;;;;;;398.48;236.95;;;9.20;99.90;;;;;;5075494;28;20108;-81
2022/12/24 08:48:12;;;;;;;409.30;245.60;;;9.30;99.90;;;;;;5088370;28;20487;-81
2022/12/24 08:50:39;;;;;;;348.38;202.95;;;9.40;99.90;;;;;;5077401;28;20051;-81
2022/12/24 08:53:05;;;;;;;321.10;188.98;;;9.70;99.90;;;;;;5087106;28;20073;-82
2022/12/24 08:55:31;;;;;;;283.73;163.52;;;9.80;99.90;;;;;;5074774;28;20020;-81
2022/12/24 08:57:57;;;;;;;184.23;107.25;;;10.00;99.90;;;;;;5075517;28;20090;-80
2022/12/24 09:00:22;;;;;;;183.02;104.82;;;10.00;99.90;;;;;;5076985;28;20111;-81
2022/12/24 09:02:48;;;;;;;197.50;111.82;;;10.00;99.90;;;;;;5076567;28;20028;-81
2022/12/24 09:05:14;;;;;;;219.57;131.82;;;10.10;99.90;;;;;;5076704;28;20016;-81
2022/12/24 09:07:40;;;;;;;221.32;129.75;;;10.00;99.90;;;;;;5076799;28;20028;-81
2022/12/24 09:10:08;;;;;;;241.40;137.32;;;10.00;99.90;;;;;;5076417;28;20074;-80
2022/12/24 09:12:34;;;;;;;235.60;137.45;;;10.00;99.90;;;;;;5076566;28;20021;-81
2022/12/24 09:15:00;;;;;;;245.52;147.60;;;10.00;99.90;;;;;;5075441;28;20047;-80
2022/12/24 09:17:26;;;;;;;235.75;135.52;;;10.00;99.90;;;;;;5075946;28;20025;-80
2022/12/24 09:19:51;;;;;;;250.93;139.95;;;10.00;99.90;;;;;;5074950;28;20044;-80
2022/12/24 09:22:17;;;;;;;251.20;138.50;;;10.00;99.90;;;;;;5075275;28;20023;-82
2022/12/24 09:24:43;;;;;;;262.23;143.50;;;10.00;99.90;;;;;;5075122;28;20349;-80
2022/12/24 09:27:08;;;;;;;260.60;147.23;;;10.10;99.90;;;;;;5074833;28;20028;-80
2022/12/24 09:29:35;;;;;;;285.70;163.82;;;10.10;99.90;;;;;;5076491;28;20027;-82
2022/12/24 09:32:01;;;;;;;287.85;171.60;;;10.10;99.90;;;;;;5074975;28;20341;-82
2022/12/24 09:34:27;;;;;;;279.40;162.55;;;10.10;99.90;;;;;;5076185;28;20025;-83
2022/12/24 09:36:53;;;;;;;291.92;175.70;;;10.10;99.90;;;;;;5075955;28;20042;-82
2022/12/24 09:39:19;;;;;;;322.40;200.20;;;10.10;99.90;;;;;;5075006;28;20107;-81
2022/12/24 09:42:16;;;;;;;343.35;212.93;;;10.10;99.90;;;;;;5081001;28;20377;-80
2022/12/24 09:44:57;;;;;;;291.73;177.93;;;10.10;99.90;;;;;;5095149;28;20024;-82
2022/12/24 09:47:37;;;;;;;305.38;188.70;;;10.20;99.90;;;;;;5085654;28;20377;-82
2022/12/24 09:50:06;;;;;;;408.80;251.48;;;10.30;99.90;;;;;;5080299;28;20366;-80
2022/12/24 09:52:36;;;;;;;427.13;260.70;;;10.30;99.90;;;;;;5080765;28;20021;-81
2022/12/24 09:55:31;;;;;;;356.80;212.35;;;10.30;99.90;;;;;;5075347;28;20024;-81
2022/12/24 09:57:59;;;;;;;272.95;157.90;;;10.40;99.90;;;;;;5096167;28;20482;-81
2022/12/24 10:00:32;;;;;;;242.23;144.05;;;10.40;99.90;;;;;;5094374;28;20024;-82
2022/12/24 10:02:58;;;;;;;190.25;112.78;;;10.40;99.90;;;;;;5073416;28;20363;-81
2022/12/24 10:05:42;;;;;;;193.10;105.13;;;10.40;99.90;;;;;;5074013;28;20028;-81
2022/12/24 10:08:08;;;;;;;170.98;98.65;;;10.60;99.90;;;;;;5074735;28;20439;-83
2022/12/24 10:10:54;;;;;;;161.38;94.15;;;10.50;99.90;;;;;;5075470;28;20411;-80
2022/12/24 10:13:45;;;;;;;142.13;83.35;;;10.60;99.90;;;;;;5074417;28;20029;-81
2022/12/24 10:16:25;;;;;;;148.45;89.18;;;10.60;99.90;;;;;;5069675;28;20020;-81
2022/12/24 10:19:14;;;;;;;159.63;93.60;;;10.60;99.90;;;;;;5074843;28;20047;-82
2022/12/24 10:22:19;;;;;;;205.82;117.55;;;10.60;99.90;;;;;;5074753;28;20055;-82
2022/12/24 10:24:53;;;;;;;237.05;134.48;;;10.70;99.90;;;;;;5067145;28;20371;-82
2022/12/24 10:27:25;;;;;;;274.05;159.00;;;10.70;99.90;;;;;;5074531;28;20047;-82
2022/12/24 10:30:01;;;;;;;311.38;178.98;;;10.70;99.90;;;;;;5074448;28;20026;-83
2022/12/24 10:32:33;;;;;;;321.58;193.88;;;10.80;99.90;;;;;;5073161;28;20024;-84
2022/12/24 10:35:03;;;;;;;311.05;185.73;;;10.80;99.90;;;;;;5083177;28;20459;-83
2022/12/24 10:37:30;;;;;;;295.95;175.52;;;10.80;99.90;;;;;;5073035;28;20097;-82
2022/12/24 10:39:58;;;;;;;269.35;158.18;;;10.80;99.90;;;;;;5074615;28;20055;-83
2022/12/24 10:42:30;;;;;;;248.63;146.40;;;10.80;99.90;;;;;;5072535;28;20153;-83
2022/12/24 10:45:00;;;;;;;;;;;10.80;99.90;;;;;;5074718;28;20017;-82
2022/12/24 10:47:26;;;;;;;260.30;151.55;;;10.80;99.90;;;;;;5082457;28;20270;-83
2022/12/24 10:50:00;;;;;;;269.90;166.52;;;10.90;99.90;;;;;;5076835;28;20035;-82
2022/12/24 10:52:31;;;;;;;268.13;160.70;;;10.90;99.90;;;;;;5075854;28;20526;-81
2022/12/24 10:55:06;;;;;;;214.48;125.55;;;10.90;99.90;;;;;;5093087;28;20525;-81
2022/12/24 10:57:33;;;;;;;225.82;129.65;;;10.80;99.90;;;;;;5094200;28;20030;-83
2022/12/24 10:59:59;;;;;;;228.88;134.10;;;10.90;99.90;;;;;;5073436;28;20021;-81
2022/12/24 11:02:25;;;;;;;174.75;108.00;;;10.80;99.90;;;;;;5072368;28;20035;-81
2022/12/24 11:04:52;;;;;;;166.85;99.25;;;10.80;99.90;;;;;;5073824;28;20024;-81
2022/12/24 11:07:20;;;;;;;146.23;87.28;;;10.80;99.90;;;;;;5073375;28;20482;-81
2022/12/24 11:10:04;;;;;;;145.63;91.07;;;10.80;99.90;;;;;;5074035;28;20036;-81
2022/12/24 11:12:46;;;;;;;150.07;87.85;;;10.80;99.90;;;;;;5072466;28;20024;-81
2022/12/24 11:15:17;;;;;;;;;;;10.80;99.90;;;;;;5077213;28;20024;-81
2022/12/24 11:17:59;;;;;;;172.43;95.32;;;10.80;99.90;;;;;;5080556;28;19994;-82
2022/12/24 11:20:29;;;;;;;212.05;112.45;;;10.80;99.90;;;;;;5075374;28;20027;-80
2022/12/24 11:22:56;;;;;;;225.77;118.38;;;10.80;99.90;;;;;;5071527;28;20055;-81
2022/12/24 11:25:27;;;;;;;213.27;115.43;;;10.70;99.90;;;;;;5071438;28;20021;-80
2022/12/24 11:27:54;;;;;;;215.10;117.50;;;10.70;99.90;;;;;;5072012;28;20367;-80
2022/12/24 11:30:24;;;;;;;211.85;115.95;;;10.70;99.90;;;;;;5071106;28;20040;-81
2022/12/24 11:33:02;;;;;;;199.38;111.18;;;10.70;99.90;;;;;;5072081;28;20031;-79
2022/12/24 11:35:32;;;;;;;180.35;101.57;;;10.70;99.90;;;;;;5071577;28;20024;-80
2022/12/24 11:38:00;;;;;;;158.93;94.25;;;10.70;99.90;;;;;;5071517;28;20035;-80
2022/12/24 11:40:59;;;;;;;156.45;91.50;;;10.70;99.90;;;;;;5072923;28;20028;-80
2022/12/24 11:43:43;;;;;;;164.25;92.97;;;10.70;99.90;;;;;;5077905;28;20798;-79
2022/12/24 11:46:26;;;;;;;154.80;91.15;;;10.70;99.90;;;;;;5073444;28;20028;-81
2022/12/24 11:49:10;;;;;;;177.80;96.07;;;10.60;99.90;;;;;;5073259;28;20024;-83
2022/12/24 11:51:57;;;;;;;223.50;122.45;;;10.60;99.90;;;;;;5071872;28;20020;-79
2022/12/24 11:54:28;;;;;;;240.25;136.48;;;10.60;99.90;;;;;;5072732;28;20020;-80
2022/12/24 11:56:56;;;;;;;241.88;123.40;;;10.70;99.90;;;;;;5073139;28;20017;-80
2022/12/24 11:59:35;;;;;;;191.35;106.03;;;10.70;99.90;;;;;;5071123;28;20028;-80
2022/12/24 12:02:30;;;;;;;198.85;111.95;;;10.70;99.90;;;;;;5066983;28;20020;-81
2022/12/24 12:05:07;;;;;;;346.60;162.35;;;10.70;99.90;;;;;;5071404;28;20103;-80
2022/12/24 12:07:37;;;;;;;281.23;152.75;;;10.70;99.90;;;;;;5072438;28;20370;-81
2022/12/24 12:10:29;;;;;;;199.90;119.00;;;10.70;99.90;;;;;;5071602;28;20047;-81
2022/12/24 12:13:11;;;;;;;190.63;111.70;;;10.70;99.90;;;;;;5071582;28;20017;-81
2022/12/24 12:16:19;;;;;;;238.82;139.18;;;10.80;99.90;;;;;;5070689;28;20030;-81
2022/12/24 12:19:02;;;;;;;188.57;109.00;;;10.80;99.90;;;;;;5068374;28;20044;-81
2022/12/24 12:21:45;;;;;;;179.63;104.68;;;10.80;99.90;;;;;;5070074;28;20067;-79
2022/12/24 12:24:20;;;;;;;208.88;113.15;;;10.80;99.90;;;;;;5071080;28;20021;-80
2022/12/24 12:26:48;;;;;;;348.70;155.40;;;10.90;99.90;;;;;;5071802;28;20036;-80
2022/12/24 12:29:36;;;;;;;197.90;94.90;;;10.90;99.90;;;;;;5070399;28;20028;-80
2022/12/24 12:32:12;;;;;;;202.98;108.32;;;10.90;99.90;;;;;;5066218;28;20016;-81
2022/12/24 12:34:57;;;;;;;175.30;88.57;;;10.90;99.90;;;;;;5072460;28;20089;-81
2022/12/24 12:37:37;;;;;;;197.15;86.43;;;10.90;99.90;;;;;;5075705;28;20032;-82
2022/12/24 12:40:10;;;;;;;169.30;78.72;;;11.00;99.90;;;;;;5072168;28;20170;-82
2022/12/24 12:42:39;;;;;;;126.93;68.45;;;10.90;99.90;;;;;;5071015;28;20031;-81